createdAt,value
2022-08-17T00:02:25.994Z,17.58
2022-08-17T00:05:37.339Z,17.46
2022-08-17T00:08:46.383Z,17.01
2022-08-17T00:12:41.499Z,16.99
2022-08-17T00:15:20.542Z,17.40
2022-08-17T00:19:01.048Z,17.43
2022-08-17T00:22:33.753Z,16.99
2022-08-17T00:25:26.973Z,16.33
2022-08-17T00:28:33.560Z,15.93
2022-08-17T00:31:40.330Z,15.93
2022-08-17T00:34:48.080Z,15.93
2022-08-17T00:37:55.091Z,15.66
2022-08-17T00:41:04.178Z,15.50
2022-08-17T00:44:12.463Z,15.69
2022-08-17T00:47:18.901Z,16.14
2022-08-17T00:50:26.382Z,16.33
2022-08-17T00:53:35.125Z,16.42
2022-08-17T00:56:44.478Z,16.21
2022-08-17T01:00:02.014Z,16.32
2022-08-17T01:03:14.966Z,16.47
2022-08-17T01:06:24.316Z,16.02
2022-08-17T01:09:31.604Z,16.40
2022-08-17T01:12:38.309Z,16.56
2022-08-17T01:15:49.816Z,15.60
2022-08-17T01:19:03.748Z,15.67
2022-08-17T01:22:20.147Z,16.09
2022-08-17T01:25:26.871Z,15.99
2022-08-17T01:28:53.740Z,15.63
2022-08-17T01:32:04.931Z,15.65
2022-08-17T01:35:11.292Z,15.32
2022-08-17T01:38:19.845Z,15.24
2022-08-17T01:41:33.745Z,14.90
2022-08-17T01:44:40.279Z,15.02
2022-08-17T01:47:46.313Z,14.96
2022-08-17T01:50:53.555Z,15.18
2022-08-17T01:54:05.482Z,15.57
2022-08-17T01:57:11.989Z,15.93
2022-08-17T02:00:18.472Z,15.66
2022-08-17T02:03:26.318Z,15.67
2022-08-17T02:06:52.783Z,15.94
2022-08-17T02:10:02.064Z,15.38
2022-08-17T02:13:08.760Z,14.96
2022-08-17T02:16:15.301Z,14.41
2022-08-17T02:19:22.443Z,14.73
2022-08-17T02:22:47.481Z,14.58
2022-08-17T02:25:59.114Z,14.21
2022-08-17T02:29:05.592Z,14.30
2022-08-17T02:32:28.163Z,14.45
2022-08-17T02:35:34.895Z,14.31
2022-08-17T02:38:42.496Z,14.76
2022-08-17T02:41:50.550Z,15.16
2022-08-17T02:44:56.954Z,14.80
2022-08-17T02:48:03.895Z,14.70
2022-08-17T02:51:10.678Z,15.03
2022-08-17T02:54:40.354Z,15.29
2022-08-17T02:57:44.940Z,15.07
2022-08-17T03:00:51.537Z,15.23
2022-08-17T03:03:57.888Z,15.28
2022-08-17T03:07:04.288Z,15.39
2022-08-17T03:10:11.946Z,14.67
2022-08-17T03:13:20.190Z,14.04
2022-08-17T03:16:26.610Z,13.80
2022-08-17T03:19:33.254Z,14.16
2022-08-17T03:22:41.876Z,14.29
2022-08-17T03:25:55.840Z,14.83
2022-08-17T03:29:03.508Z,15.01
2022-08-17T03:32:15.004Z,15.22
2022-08-17T03:35:28.454Z,15.14
2022-08-17T03:38:39.203Z,15.07
2022-08-17T03:41:46.293Z,14.73
2022-08-17T03:44:56.999Z,13.92
2022-08-17T03:48:21.847Z,13.56
2022-08-17T03:51:45.591Z,13.48
2022-08-17T03:55:09.463Z,13.48
2022-08-17T03:58:15.755Z,14.43
2022-08-17T04:01:23.538Z,14.61
2022-08-17T04:04:29.811Z,14.67
2022-08-17T04:07:35.867Z,14.76
2022-08-17T04:10:45.139Z,14.37
2022-08-17T04:13:51.472Z,14.07
2022-08-17T04:16:59.108Z,14.36
2022-08-17T04:20:06.850Z,14.16
2022-08-17T04:23:15.807Z,14.23
2022-08-17T04:26:53.379Z,15.22
2022-08-17T04:29:54.665Z,15.45
2022-08-17T04:33:08.764Z,15.56
2022-08-17T04:36:17.253Z,15.80
2022-08-17T04:39:25.151Z,15.69
2022-08-17T04:42:30.627Z,15.90
2022-08-17T04:45:40.840Z,15.95
2022-08-17T04:49:05.639Z,16.14
2022-08-17T04:52:12.471Z,16.46
2022-08-17T04:55:38.947Z,15.99
2022-08-17T04:58:47.818Z,15.98
2022-08-17T05:01:54.807Z,16.09
2022-08-17T05:05:02.886Z,16.43
2022-08-17T05:08:09.564Z,16.45
2022-08-17T05:11:16.108Z,16.71
2022-08-17T05:14:22.631Z,16.58
2022-08-17T05:17:39.464Z,16.78
2022-08-17T05:20:47.204Z,16.98
2022-08-17T05:23:54.903Z,16.90
2022-08-17T05:27:05.052Z,17.44
2022-08-17T05:30:14.791Z,17.50
2022-08-17T05:33:24.159Z,17.52
2022-08-17T05:36:43.580Z,17.57
2022-08-17T05:39:51.091Z,17.96
2022-08-17T05:43:07.556Z,17.69
2022-08-17T05:46:20.427Z,18.29
2022-08-17T05:49:29.509Z,18.82
2022-08-17T05:52:45.030Z,18.91
2022-08-17T05:56:02.850Z,19.24
2022-08-17T05:59:17.292Z,19.46
2022-08-17T06:02:30.612Z,18.88
2022-08-17T06:06:01.417Z,19.18
2022-08-17T06:09:26.659Z,20.11
2022-08-17T06:12:43.775Z,19.70
2022-08-17T06:15:58.313Z,20.02
2022-08-17T06:19:12.528Z,20.61
2022-08-17T06:22:21.897Z,20.80
2022-08-17T06:25:35.395Z,20.74
2022-08-17T06:28:52.054Z,21.00
2022-08-17T06:31:58.665Z,21.55
2022-08-17T06:35:07.604Z,21.38
2022-08-17T06:38:37.355Z,21.20
2022-08-17T06:41:56.807Z,21.71
2022-08-17T06:45:08.015Z,22.17
2022-08-17T06:48:24.949Z,21.65
2022-08-17T06:51:36.280Z,22.24
2022-08-17T06:54:52.398Z,22.52
2022-08-17T06:58:11.997Z,22.67
2022-08-17T07:01:31.054Z,22.66
2022-08-17T07:04:37.911Z,23.21
2022-08-17T07:08:03.704Z,23.12
2022-08-17T07:11:14.567Z,23.01
2022-08-17T07:14:32.083Z,23.53
2022-08-17T07:17:47.367Z,23.75
2022-08-17T07:20:59.924Z,23.22
2022-08-17T07:24:29.380Z,23.79
2022-08-17T07:27:40.271Z,23.95
2022-08-17T07:30:52.481Z,24.38
2022-08-17T07:34:08.466Z,24.04
2022-08-17T07:37:20.664Z,24.28
2022-08-17T07:40:32.171Z,25.19
2022-08-17T07:43:47.222Z,24.47
2022-08-17T07:47:13.375Z,25.61
2022-08-17T07:50:29.191Z,24.65
2022-08-17T07:53:35.797Z,25.26
2022-08-17T07:56:46.260Z,25.55
2022-08-17T08:00:23.773Z,25.72
2022-08-17T08:03:44.506Z,26.14
2022-08-17T08:06:54.581Z,26.33
2022-08-17T08:10:10.294Z,26.25
2022-08-17T08:13:24.559Z,26.33
2022-08-17T08:16:30.757Z,26.55
2022-08-17T08:19:38.803Z,27.01
2022-08-17T08:22:53.503Z,26.87
2022-08-17T08:26:18.553Z,27.02
2022-08-17T08:29:34.703Z,26.79
2022-08-17T08:33:13.601Z,27.03
2022-08-17T08:37:14.606Z,26.67
2022-08-17T08:40:21.614Z,26.80
2022-08-17T08:43:38.242Z,27.20
2022-08-17T08:46:54.088Z,28.38
2022-08-17T08:50:30.249Z,28.43
2022-08-17T08:53:55.173Z,27.59
2022-08-17T08:57:28.046Z,27.93
2022-08-17T09:00:39.728Z,28.02
2022-08-17T09:04:23.440Z,28.64
2022-08-17T09:07:41.928Z,27.75
2022-08-17T09:10:59.702Z,28.49
2022-08-17T09:14:21.736Z,28.90
2022-08-17T09:17:40.313Z,28.06
2022-08-17T09:20:50.990Z,28.76
2022-08-17T09:24:05.557Z,28.43
2022-08-17T09:27:18.502Z,28.99
2022-08-17T09:30:25.449Z,28.84
2022-08-17T09:33:38.900Z,28.45
2022-08-17T09:36:52.749Z,28.99
2022-08-17T09:40:10.975Z,29.10
2022-08-17T09:43:27.262Z,28.57
2022-08-17T09:46:39.447Z,28.75
2022-08-17T09:49:50.699Z,29.73
2022-08-17T09:52:59.807Z,29.90
2022-08-17T09:56:19.373Z,29.94
2022-08-17T09:59:46.495Z,29.32
2022-08-17T10:03:26.369Z,30.51
2022-08-17T10:06:39.056Z,30.30
2022-08-17T10:09:58.324Z,30.19
2022-08-17T10:13:11.391Z,30.20
2022-08-17T10:16:26.639Z,30.46
2022-08-17T10:19:39.795Z,29.47
2022-08-17T10:23:11.820Z,29.66
2022-08-17T10:26:24.984Z,28.66
2022-08-17T10:29:49.213Z,28.61
2022-08-17T10:33:00.677Z,28.52
2022-08-17T10:36:13.796Z,29.16
2022-08-17T10:39:32.068Z,29.45
2022-08-17T10:42:46.975Z,29.62
2022-08-17T10:46:26.479Z,28.71
2022-08-17T10:49:34.398Z,28.79
2022-08-17T10:52:50.202Z,29.64
2022-08-17T10:56:38.198Z,29.79
2022-08-17T10:59:55.442Z,30.09
2022-08-17T11:03:02.045Z,30.60
2022-08-17T11:06:21.907Z,30.97
2022-08-17T11:09:45.107Z,30.82
2022-08-17T11:13:01.506Z,30.37
2022-08-17T11:16:39.017Z,30.59
2022-08-17T11:20:04.981Z,30.61
2022-08-17T11:23:31.790Z,30.41
2022-08-17T11:26:42.307Z,30.47
2022-08-17T11:29:58.087Z,29.16
2022-08-17T11:33:44.510Z,30.63
2022-08-17T11:37:27.282Z,30.86
2022-08-17T11:40:48.787Z,30.83
2022-08-17T11:44:11.784Z,30.10
2022-08-17T11:47:56.988Z,29.89
2022-08-17T11:51:31.707Z,29.67
2022-08-17T11:54:45.305Z,29.90
2022-08-17T11:58:03.576Z,29.66
2022-08-17T12:01:13.650Z,31.11
2022-08-17T12:04:29.134Z,31.10
2022-08-17T12:07:43.856Z,31.19
2022-08-17T12:10:57.896Z,31.36
2022-08-17T12:14:06.365Z,30.71
2022-08-17T12:17:20.860Z,30.04
2022-08-17T12:20:45.507Z,31.40
2022-08-17T12:24:03.391Z,31.51
2022-08-17T12:27:13.233Z,31.79
2022-08-17T12:30:23.252Z,31.28
2022-08-17T12:33:30.253Z,31.73
2022-08-17T12:36:36.983Z,31.92
2022-08-17T12:39:54.797Z,31.87
2022-08-17T12:43:04.008Z,31.64
2022-08-17T12:46:31.576Z,31.40
2022-08-17T12:49:59.237Z,31.59
2022-08-17T12:53:20.631Z,31.53
2022-08-17T12:56:42.308Z,32.22
2022-08-17T12:59:59.868Z,31.50
2022-08-17T13:03:12.561Z,32.31
2022-08-17T13:06:30.348Z,32.14
2022-08-17T13:09:40.771Z,32.97
2022-08-17T13:12:49.637Z,32.58
2022-08-17T13:15:58.577Z,31.95
2022-08-17T13:19:10.553Z,31.00
2022-08-17T13:22:18.442Z,31.83
2022-08-17T13:25:25.526Z,31.89
2022-08-17T13:28:36.412Z,31.07
2022-08-17T13:31:52.704Z,30.31
2022-08-17T13:35:47.111Z,29.90
2022-08-17T13:39:08.655Z,31.27
2022-08-17T13:42:33.444Z,31.08
2022-08-17T13:46:10.385Z,30.74
2022-08-17T13:49:23.603Z,29.97
2022-08-17T13:52:39.506Z,29.79
2022-08-17T13:55:51.924Z,29.69
2022-08-17T13:59:01.422Z,30.26
2022-08-17T14:02:09.960Z,30.48
2022-08-17T14:05:16.431Z,29.71
2022-08-17T14:08:22.831Z,30.12
2022-08-17T14:11:30.722Z,30.85
2022-08-17T14:14:36.915Z,31.59
2022-08-17T14:17:43.474Z,30.75
2022-08-17T14:20:49.723Z,29.94
2022-08-17T14:23:56.082Z,29.07
2022-08-17T14:27:06.229Z,29.37
2022-08-17T14:30:13.650Z,28.82
2022-08-17T14:33:22.637Z,30.30
2022-08-17T14:36:29.208Z,30.10
2022-08-17T14:39:35.431Z,29.96
2022-08-17T14:42:45.934Z,29.88
2022-08-17T14:45:52.463Z,29.98
2022-08-17T14:48:59.768Z,30.63
2022-08-17T14:52:06.316Z,29.96
2022-08-17T14:55:13.275Z,29.80
2022-08-17T14:58:21.237Z,29.27
2022-08-17T15:01:28.736Z,28.67
2022-08-17T15:04:35.383Z,28.71
2022-08-17T15:07:41.762Z,29.28
2022-08-17T15:10:54.199Z,29.22
2022-08-17T15:14:02.412Z,28.46
2022-08-17T15:17:09.179Z,28.55
2022-08-17T15:20:17.683Z,28.50
2022-08-17T15:23:26.930Z,28.17
2022-08-17T15:26:33.203Z,28.21
2022-08-17T15:29:41.143Z,28.15
2022-08-17T15:32:54.126Z,28.33
2022-08-17T15:36:03.386Z,28.59
2022-08-17T15:39:09.535Z,28.40
2022-08-17T15:42:16.319Z,28.24
2022-08-17T15:45:27.047Z,27.97
2022-08-17T15:48:43.895Z,27.87
2022-08-17T15:51:50.401Z,27.81
2022-08-17T15:54:58.833Z,27.38
2022-08-17T15:58:07.088Z,27.47
2022-08-17T16:01:44.594Z,27.52
2022-08-17T16:04:44.545Z,27.52
2022-08-17T16:07:53.732Z,27.33
2022-08-17T16:11:00.548Z,27.52
2022-08-17T16:14:06.563Z,27.59
2022-08-17T16:17:49.509Z,27.41
2022-08-17T16:20:40.583Z,27.31
2022-08-17T16:23:46.946Z,27.21
2022-08-17T16:26:55.650Z,27.28
2022-08-17T16:30:02.208Z,27.20
2022-08-17T16:33:11.798Z,27.07
2022-08-17T16:36:18.803Z,27.16
2022-08-17T16:39:26.921Z,27.16
2022-08-17T16:42:34.920Z,27.17
2022-08-17T16:45:42.439Z,27.02
2022-08-17T16:48:49.807Z,26.89
2022-08-17T16:52:01.784Z,26.56
2022-08-17T16:55:10.451Z,26.59
2022-08-17T16:58:20.123Z,26.32
2022-08-17T17:01:26.680Z,26.28
2022-08-17T17:04:37.990Z,26.18
2022-08-17T17:08:09.019Z,26.04
2022-08-17T17:11:24.841Z,25.92
2022-08-17T17:14:37.092Z,25.91
2022-08-17T17:17:47.815Z,25.89
2022-08-17T17:20:57.575Z,25.80
2022-08-17T17:24:09.764Z,25.67
2022-08-17T17:27:32.219Z,25.77
2022-08-17T17:30:44.698Z,25.62
2022-08-17T17:33:54.572Z,25.48
2022-08-17T17:37:08.777Z,25.37
2022-08-17T17:40:20.638Z,25.32
2022-08-17T17:43:44.597Z,25.24
2022-08-17T17:46:56.154Z,24.91
2022-08-17T17:50:05.688Z,24.80
2022-08-17T17:53:35.277Z,24.52
2022-08-17T17:56:55.784Z,24.23
2022-08-17T18:00:09.135Z,24.31
2022-08-17T18:03:36.845Z,24.20
2022-08-17T18:06:50.552Z,23.71
2022-08-17T18:10:19.542Z,23.79
2022-08-17T18:13:56.420Z,23.73
2022-08-17T18:17:02.961Z,23.56
2022-08-17T18:20:09.780Z,23.40
2022-08-17T18:23:15.983Z,23.33
2022-08-17T18:26:48.307Z,23.18
2022-08-17T18:29:57.388Z,22.80
2022-08-17T18:33:24.402Z,23.09
2022-08-17T18:36:33.498Z,23.07
2022-08-17T18:39:40.099Z,22.86
2022-08-17T18:42:59.737Z,23.02
2022-08-17T18:46:28.980Z,22.93
2022-08-17T18:49:37.844Z,22.64
2022-08-17T18:52:44.370Z,22.40
2022-08-17T18:55:50.657Z,22.28
2022-08-17T18:59:19.895Z,22.34
2022-08-17T19:02:44.700Z,22.53
2022-08-17T19:05:53.336Z,22.21
2022-08-17T19:09:01.355Z,21.72
2022-08-17T19:12:11.702Z,21.63
2022-08-17T19:15:31.485Z,21.48
2022-08-17T19:18:40.708Z,21.56
2022-08-17T19:21:53.355Z,21.37
2022-08-17T19:25:12.138Z,21.36
2022-08-17T19:28:25.008Z,21.10
2022-08-17T19:31:33.032Z,21.05
2022-08-17T19:34:44.695Z,21.10
2022-08-17T19:38:04.416Z,21.14
2022-08-17T19:41:20.566Z,21.08
2022-08-17T19:44:50.560Z,20.90
2022-08-17T19:48:10.057Z,21.02
2022-08-17T19:51:21.294Z,20.72
2022-08-17T19:54:34.415Z,20.56
2022-08-17T19:57:50.623Z,20.48
2022-08-17T20:00:57.213Z,20.25
2022-08-17T20:04:12.072Z,20.23
2022-08-17T20:07:28.504Z,20.07
2022-08-17T20:10:47.261Z,19.72
2022-08-17T20:14:05.255Z,19.71
2022-08-17T20:17:13.568Z,19.58
2022-08-17T20:20:29.754Z,19.39
2022-08-17T20:23:46.493Z,19.47
2022-08-17T20:26:58.910Z,19.70
2022-08-17T20:30:12.385Z,19.46
2022-08-17T20:33:28.456Z,19.40
2022-08-17T20:36:37.022Z,19.50
2022-08-17T20:39:46.324Z,18.77
2022-08-17T20:42:52.679Z,19.25
2022-08-17T20:46:10.869Z,18.84
2022-08-17T20:49:27.156Z,18.84
2022-08-17T20:52:50.926Z,18.90
2022-08-17T20:55:57.523Z,18.88
2022-08-17T20:59:03.691Z,19.02
2022-08-17T21:02:18.350Z,19.02
2022-08-17T21:05:32.406Z,18.93
2022-08-17T21:08:53.943Z,18.73
2022-08-17T21:12:05.475Z,18.56
2022-08-17T21:15:31.665Z,18.31
2022-08-17T21:18:48.055Z,17.90
2022-08-17T21:22:07.527Z,18.15
2022-08-17T21:25:29.732Z,17.68
2022-08-17T21:29:00.370Z,17.65
2022-08-17T21:32:24.650Z,17.57
2022-08-17T21:35:48.725Z,17.91
2022-08-17T21:39:03.245Z,18.03
2022-08-17T21:42:14.047Z,18.11
2022-08-17T21:45:25.560Z,18.20
2022-08-17T21:48:41.634Z,17.98
2022-08-17T21:51:50.484Z,18.14
2022-08-17T21:55:00.399Z,18.38
2022-08-17T21:58:23.524Z,18.07
2022-08-17T22:01:34.474Z,17.27
2022-08-17T22:04:42.846Z,17.31
2022-08-17T22:07:51.920Z,17.24
2022-08-17T22:11:03.186Z,17.30
2022-08-17T22:14:20.270Z,17.37
2022-08-17T22:17:29.048Z,17.13
2022-08-17T22:20:36.254Z,17.47
2022-08-17T22:24:02.190Z,17.73
2022-08-17T22:27:11.783Z,17.86
2022-08-17T22:30:27.682Z,17.75
2022-08-17T22:33:40.957Z,17.38
2022-08-17T22:36:47.308Z,17.01
2022-08-17T22:40:00.883Z,17.65
2022-08-17T22:43:12.929Z,17.39
2022-08-17T22:46:22.553Z,17.45
2022-08-17T22:49:35.381Z,17.21
2022-08-17T22:52:58.964Z,17.20
2022-08-17T22:56:23.595Z,17.61
2022-08-17T22:59:50.864Z,17.59
2022-08-17T23:03:12.712Z,17.09
2022-08-17T23:06:18.918Z,16.43
2022-08-17T23:09:25.406Z,16.27
2022-08-17T23:12:32.425Z,16.36
2022-08-17T23:15:40.168Z,16.74
2022-08-17T23:18:50.932Z,16.55
2022-08-17T23:21:59.006Z,16.34
2022-08-17T23:25:06.379Z,16.13
2022-08-17T23:28:12.881Z,16.12
2022-08-17T23:31:21.197Z,16.12
2022-08-17T23:34:33.660Z,16.14
2022-08-17T23:37:41.570Z,16.17
2022-08-17T23:40:48.347Z,16.63
2022-08-17T23:43:55.290Z,16.87
2022-08-17T23:47:04.742Z,16.81
2022-08-17T23:50:12.820Z,16.84
2022-08-17T23:53:19.253Z,16.85
2022-08-17T23:56:26.198Z,16.81
2022-08-17T23:59:33.969Z,16.87
